sensor_id;sensor_type;location;lat;lon;timestamp;pressure;altitude;pressure_sealevel;temperature;humidity
6423;BME280;3244;42.708;23.288;2022-09-09T00:01:42;95250.50;;;20.38;nan
6423;BME280;3244;42.708;23.288;2022-09-09T00:04:15;95251.69;;;20.32;nan
6423;BME280;3244;42.708;23.288;2022-09-09T00:06:55;95247.81;;;20.14;nan
6423;BME280;3244;42.708;23.288;2022-09-09T00:09:26;95242.81;;;19.48;nan
6423;BME280;3244;42.708;23.288;2022-09-09T00:11:59;95254.19;;;19.31;nan
6423;BME280;3244;42.708;23.288;2022-09-09T00:14:35;95252.44;;;19.31;nan
6423;BME280;3244;42.708;23.288;2022-09-09T00:17:08;95255.34;;;19.40;nan
6423;BME280;3244;42.708;23.288;2022-09-09T00:19:43;95243.09;;;19.03;nan
6423;BME280;3244;42.708;23.288;2022-09-09T00:22:19;95239.38;;;19.08;nan
6423;BME280;3244;42.708;23.288;2022-09-09T00:24:47;95224.88;;;18.80;nan
6423;BME280;3244;42.708;23.288;2022-09-09T00:27:23;95222.41;;;18.78;nan
6423;BME280;3244;42.708;23.288;2022-09-09T00:29:56;95222.16;;;18.95;nan
6423;BME280;3244;42.708;23.288;2022-09-09T00:32:29;95228.69;;;19.14;nan
6423;BME280;3244;42.708;23.288;2022-09-09T00:35:00;95219.84;;;19.18;nan
6423;BME280;3244;42.708;23.288;2022-09-09T00:37:30;95212.56;;;18.56;nan
6423;BME280;3244;42.708;23.288;2022-09-09T00:40:04;95204.63;;;18.32;nan
6423;BME280;3244;42.708;23.288;2022-09-09T00:42:41;95205.91;;;18.40;nan
6423;BME280;3244;42.708;23.288;2022-09-09T00:45:19;95207.53;;;18.69;nan
6423;BME280;3244;42.708;23.288;2022-09-09T00:47:53;95213.53;;;19.09;nan
6423;BME280;3244;42.708;23.288;2022-09-09T00:50:41;95215.75;;;19.28;nan
6423;BME280;3244;42.708;23.288;2022-09-09T00:53:29;95212.66;;;19.23;nan
6423;BME280;3244;42.708;23.288;2022-09-09T00:56:08;95210.38;;;19.31;nan
6423;BME280;3244;42.708;23.288;2022-09-09T00:58:37;95207.94;;;19.42;nan
6423;BME280;3244;42.708;23.288;2022-09-09T01:01:05;95212.34;;;19.54;nan
6423;BME280;3244;42.708;23.288;2022-09-09T01:03:35;95213.56;;;19.74;nan
6423;BME280;3244;42.708;23.288;2022-09-09T01:06:13;95218.00;;;19.85;nan
6423;BME280;3244;42.708;23.288;2022-09-09T01:09:08;95219.91;;;19.43;nan
6423;BME280;3244;42.708;23.288;2022-09-09T01:11:47;95210.75;;;19.12;nan
6423;BME280;3244;42.708;23.288;2022-09-09T01:14:24;95221.03;;;18.99;nan
6423;BME280;3244;42.708;23.288;2022-09-09T01:17:00;95220.38;;;19.23;nan
6423;BME280;3244;42.708;23.288;2022-09-09T01:19:39;95218.34;;;19.28;nan
6423;BME280;3244;42.708;23.288;2022-09-09T01:22:12;95208.31;;;19.23;nan
6423;BME280;3244;42.708;23.288;2022-09-09T01:27:59;95211.63;;;19.25;nan
6423;BME280;3244;42.708;23.288;2022-09-09T01:30:27;95210.19;;;19.34;nan
6423;BME280;3244;42.708;23.288;2022-09-09T01:32:56;95207.66;;;19.47;nan
6423;BME280;3244;42.708;23.288;2022-09-09T01:35:42;95221.41;;;19.73;nan
6423;BME280;3244;42.708;23.288;2022-09-09T01:38:12;95232.31;;;19.63;nan
6423;BME280;3244;42.708;23.288;2022-09-09T01:40:39;95219.69;;;19.46;nan
6423;BME280;3244;42.708;23.288;2022-09-09T01:43:07;95233.31;;;19.48;nan
6423;BME280;3244;42.708;23.288;2022-09-09T01:45:34;95229.75;;;19.24;nan
6423;BME280;3244;42.708;23.288;2022-09-09T01:48:02;95229.75;;;19.24;nan
6423;BME280;3244;42.708;23.288;2022-09-09T01:50:29;95229.56;;;19.40;nan
6423;BME280;3244;42.708;23.288;2022-09-09T01:52:58;95234.19;;;19.61;nan
6423;BME280;3244;42.708;23.288;2022-09-09T01:55:30;95238.22;;;19.65;nan
6423;BME280;3244;42.708;23.288;2022-09-09T01:58:11;95232.22;;;19.52;nan
6423;BME280;3244;42.708;23.288;2022-09-09T02:00:47;95226.72;;;19.44;nan
6423;BME280;3244;42.708;23.288;2022-09-09T02:03:24;95225.00;;;19.57;nan
6423;BME280;3244;42.708;23.288;2022-09-09T02:05:56;95234.31;;;19.73;nan
6423;BME280;3244;42.708;23.288;2022-09-09T02:08:32;95223.88;;;19.87;nan
6423;BME280;3244;42.708;23.288;2022-09-09T02:11:05;95224.78;;;19.60;nan
6423;BME280;3244;42.708;23.288;2022-09-09T02:13:35;95212.84;;;19.20;nan
6423;BME280;3244;42.708;23.288;2022-09-09T02:16:07;95213.75;;;18.79;nan
6423;BME280;3244;42.708;23.288;2022-09-09T02:18:37;95210.66;;;18.74;nan
6423;BME280;3244;42.708;23.288;2022-09-09T02:21:06;95221.88;;;19.00;nan
6423;BME280;3244;42.708;23.288;2022-09-09T02:23:34;95214.44;;;18.68;nan
6423;BME280;3244;42.708;23.288;2022-09-09T02:26:03;95221.69;;;18.62;nan
6423;BME280;3244;42.708;23.288;2022-09-09T02:28:31;95226.66;;;19.19;nan
6423;BME280;3244;42.708;23.288;2022-09-09T02:31:00;95223.78;;;19.36;nan
6423;BME280;3244;42.708;23.288;2022-09-09T02:33:30;95213.53;;;19.09;nan
6423;BME280;3244;42.708;23.288;2022-09-09T02:36:01;95228.34;;;19.06;nan
6423;BME280;3244;42.708;23.288;2022-09-09T02:38:32;95234.75;;;19.40;nan
6423;BME280;3244;42.708;23.288;2022-09-09T02:41:01;95241.75;;;19.37;nan
6423;BME280;3244;42.708;23.288;2022-09-09T02:43:31;95233.31;;;19.48;nan
6423;BME280;3244;42.708;23.288;2022-09-09T02:46:07;95237.38;;;19.52;nan
6423;BME280;3244;42.708;23.288;2022-09-09T02:48:44;95238.47;;;19.48;nan
6423;BME280;3244;42.708;23.288;2022-09-09T02:51:18;95232.44;;;19.35;nan
6423;BME280;3244;42.708;23.288;2022-09-09T02:53:58;95232.25;;;19.38;nan
6423;BME280;3244;42.708;23.288;2022-09-09T02:56:30;95236.03;;;19.20;nan
6423;BME280;3244;42.708;23.288;2022-09-09T02:58:59;95236.75;;;19.22;nan
6423;BME280;3244;42.708;23.288;2022-09-09T03:01:27;95232.19;;;19.13;nan
6423;BME280;3244;42.708;23.288;2022-09-09T03:03:54;95242.19;;;18.78;nan
6423;BME280;3244;42.708;23.288;2022-09-09T03:06:20;95236.59;;;18.71;nan
6423;BME280;3244;42.708;23.288;2022-09-09T03:08:47;95233.28;;;18.69;nan
6423;BME280;3244;42.708;23.288;2022-09-09T03:11:15;95235.69;;;18.85;nan
6423;BME280;3244;42.708;23.288;2022-09-09T03:13:42;95231.47;;;19.11;nan
6423;BME280;3244;42.708;23.288;2022-09-09T03:16:09;95237.59;;;19.22;nan
6423;BME280;3244;42.708;23.288;2022-09-09T03:18:37;95229.97;;;18.94;nan
6423;BME280;3244;42.708;23.288;2022-09-09T03:21:04;95227.97;;;18.85;nan
6423;BME280;3244;42.708;23.288;2022-09-09T03:23:30;95227.50;;;18.92;nan
6423;BME280;3244;42.708;23.288;2022-09-09T03:25:57;95223.31;;;19.04;nan
6423;BME280;3244;42.708;23.288;2022-09-09T03:28:24;95227.09;;;19.25;nan
6423;BME280;3244;42.708;23.288;2022-09-09T03:30:58;95225.66;;;19.34;nan
6423;BME280;3244;42.708;23.288;2022-09-09T03:33:25;95227.00;;;19.27;nan
6423;BME280;3244;42.708;23.288;2022-09-09T03:35:54;95226.75;;;18.90;nan
6423;BME280;3244;42.708;23.288;2022-09-09T03:38:22;95230.88;;;18.80;nan
6423;BME280;3244;42.708;23.288;2022-09-09T03:40:50;95227.78;;;18.47;nan
6423;BME280;3244;42.708;23.288;2022-09-09T03:43:20;95222.00;;;18.43;nan
6423;BME280;3244;42.708;23.288;2022-09-09T03:45:48;95232.59;;;18.24;nan
6423;BME280;3244;42.708;23.288;2022-09-09T03:48:15;95235.06;;;17.97;nan
6423;BME280;3244;42.708;23.288;2022-09-09T03:50:44;95236.06;;;17.66;nan
6423;BME280;3244;42.708;23.288;2022-09-09T03:53:14;95238.09;;;17.90;nan
6423;BME280;3244;42.708;23.288;2022-09-09T03:55:43;95238.25;;;18.44;nan
6423;BME280;3244;42.708;23.288;2022-09-09T03:58:12;95240.44;;;18.78;nan
6423;BME280;3244;42.708;23.288;2022-09-09T04:00:39;95236.31;;;18.33;nan
6423;BME280;3244;42.708;23.288;2022-09-09T04:03:07;95237.91;;;18.21;nan
6423;BME280;3244;42.708;23.288;2022-09-09T04:05:34;95246.72;;;18.17;nan
6423;BME280;3244;42.708;23.288;2022-09-09T04:08:05;95241.78;;;18.14;nan
6423;BME280;3244;42.708;23.288;2022-09-09T04:10:33;95245.09;;;18.16;nan
6423;BME280;3244;42.708;23.288;2022-09-09T04:13:01;95240.03;;;18.29;nan
6423;BME280;3244;42.708;23.288;2022-09-09T04:15:28;95236.81;;;18.11;nan
6423;BME280;3244;42.708;23.288;2022-09-09T04:17:55;95236.63;;;18.14;nan
6423;BME280;3244;42.708;23.288;2022-09-09T04:20:22;95234.44;;;17.94;nan
6423;BME280;3244;42.708;23.288;2022-09-09T04:22:49;95229.94;;;18.26;nan
6423;BME280;3244;42.708;23.288;2022-09-09T04:25:16;95234.97;;;18.27;nan
6423;BME280;3244;42.708;23.288;2022-09-09T04:27:44;95241.09;;;18.53;nan
6423;BME280;3244;42.708;23.288;2022-09-09T04:30:11;95238.97;;;18.60;nan
6423;BME280;3244;42.708;23.288;2022-09-09T04:32:38;95245.88;;;18.45;nan
6423;BME280;3244;42.708;23.288;2022-09-09T04:35:05;95243.06;;;18.21;nan
6423;BME280;3244;42.708;23.288;2022-09-09T04:37:32;95248.38;;;18.18;nan
6423;BME280;3244;42.708;23.288;2022-09-09T04:39:59;95241.94;;;18.54;nan
6423;BME280;3244;42.708;23.288;2022-09-09T04:42:27;95243.94;;;18.63;nan
6423;BME280;3244;42.708;23.288;2022-09-09T04:44:55;95242.75;;;18.54;nan
6423;BME280;3244;42.708;23.288;2022-09-09T04:47:22;95246.34;;;18.52;nan
6423;BME280;3244;42.708;23.288;2022-09-09T04:49:49;95241.47;;;18.61;nan
6423;BME280;3244;42.708;23.288;2022-09-09T04:52:17;95229.16;;;18.93;nan
6423;BME280;3244;42.708;23.288;2022-09-09T04:54:44;95234.22;;;19.08;nan
6423;BME280;3244;42.708;23.288;2022-09-09T04:57:11;95233.16;;;19.24;nan
6423;BME280;3244;42.708;23.288;2022-09-09T04:59:38;95234.91;;;19.24;nan
6423;BME280;3244;42.708;23.288;2022-09-09T05:02:06;95232.88;;;19.42;nan
6423;BME280;3244;42.708;23.288;2022-09-09T05:04:33;95227.94;;;19.38;nan
6423;BME280;3244;42.708;23.288;2022-09-09T05:07:00;95219.19;;;19.41;nan
6423;BME280;3244;42.708;23.288;2022-09-09T05:09:26;95217.06;;;19.98;nan
6423;BME280;3244;42.708;23.288;2022-09-09T05:11:54;95215.41;;;19.85;nan
6423;BME280;3244;42.708;23.288;2022-09-09T05:14:21;95233.97;;;20.41;nan
6423;BME280;3244;42.708;23.288;2022-09-09T05:16:48;95230.13;;;21.06;nan
6423;BME280;3244;42.708;23.288;2022-09-09T05:19:16;95226.75;;;21.87;nan
6423;BME280;3244;42.708;23.288;2022-09-09T05:21:45;95219.00;;;23.20;nan
6423;BME280;3244;42.708;23.288;2022-09-09T05:24:11;95212.84;;;24.55;nan
6423;BME280;3244;42.708;23.288;2022-09-09T05:26:38;95204.44;;;25.98;nan
6423;BME280;3244;42.708;23.288;2022-09-09T05:29:05;95209.69;;;26.53;nan
6423;BME280;3244;42.708;23.288;2022-09-09T05:31:33;95209.84;;;28.79;nan
6423;BME280;3244;42.708;23.288;2022-09-09T05:34:00;95208.06;;;30.50;nan
6423;BME280;3244;42.708;23.288;2022-09-09T05:36:28;95205.47;;;31.89;nan
6423;BME280;3244;42.708;23.288;2022-09-09T05:38:55;95203.53;;;32.50;nan
6423;BME280;3244;42.708;23.288;2022-09-09T05:41:21;95207.31;;;32.91;nan
6423;BME280;3244;42.708;23.288;2022-09-09T05:43:49;95205.16;;;34.01;nan
6423;BME280;3244;42.708;23.288;2022-09-09T05:46:18;95204.72;;;34.67;nan
6423;BME280;3244;42.708;23.288;2022-09-09T05:48:47;95208.31;;;34.53;nan
6423;BME280;3244;42.708;23.288;2022-09-09T05:51:17;95211.13;;;34.79;nan
6423;BME280;3244;42.708;23.288;2022-09-09T05:53:45;95211.13;;;34.79;nan
6423;BME280;3244;42.708;23.288;2022-09-09T05:56:13;95208.72;;;34.84;nan
6423;BME280;3244;42.708;23.288;2022-09-09T05:58:41;95200.41;;;34.87;nan
6423;BME280;3244;42.708;23.288;2022-09-09T06:01:10;95203.31;;;35.12;nan
6423;BME280;3244;42.708;23.288;2022-09-09T06:03:39;95211.19;;;36.06;nan
6423;BME280;3244;42.708;23.288;2022-09-09T06:06:08;95217.38;;;36.71;nan
6423;BME280;3244;42.708;23.288;2022-09-09T06:08:36;95228.63;;;35.47;nan
6423;BME280;3244;42.708;23.288;2022-09-09T06:11:06;95213.69;;;35.13;nan
6423;BME280;3244;42.708;23.288;2022-09-09T06:13:33;95218.84;;;35.48;nan
6423;BME280;3244;42.708;23.288;2022-09-09T06:16:02;95213.34;;;35.43;nan
6423;BME280;3244;42.708;23.288;2022-09-09T06:18:29;95215.03;;;36.03;nan
6423;BME280;3244;42.708;23.288;2022-09-09T06:20:57;95224.22;;;35.81;nan
6423;BME280;3244;42.708;23.288;2022-09-09T06:23:26;95217.31;;;34.65;nan
6423;BME280;3244;42.708;23.288;2022-09-09T06:26:01;95212.09;;;34.78;nan
6423;BME280;3244;42.708;23.288;2022-09-09T06:28:32;95219.16;;;34.64;nan
6423;BME280;3244;42.708;23.288;2022-09-09T06:30:59;95220.88;;;35.46;nan
6423;BME280;3244;42.708;23.288;2022-09-09T06:33:27;95216.59;;;35.32;nan
6423;BME280;3244;42.708;23.288;2022-09-09T06:35:57;95206.25;;;35.50;nan
6423;BME280;3244;42.708;23.288;2022-09-09T06:38:24;95198.56;;;36.01;nan
6423;BME280;3244;42.708;23.288;2022-09-09T06:40:52;95207.72;;;35.99;nan
6423;BME280;3244;42.708;23.288;2022-09-09T06:43:20;95197.34;;;35.91;nan
6423;BME280;3244;42.708;23.288;2022-09-09T06:45:54;95200.13;;;35.30;nan
6423;BME280;3244;42.708;23.288;2022-09-09T06:48:21;95194.44;;;35.33;nan
6423;BME280;3244;42.708;23.288;2022-09-09T06:50:48;95207.06;;;36.17;nan
6423;BME280;3244;42.708;23.288;2022-09-09T06:53:16;95213.91;;;36.84;nan
6423;BME280;3244;42.708;23.288;2022-09-09T06:55:45;95215.25;;;37.75;nan
6423;BME280;3244;42.708;23.288;2022-09-09T06:58:12;95220.06;;;37.16;nan
6423;BME280;3244;42.708;23.288;2022-09-09T07:00:38;95214.81;;;38.28;nan
6423;BME280;3244;42.708;23.288;2022-09-09T07:03:06;95219.56;;;37.70;nan
6423;BME280;3244;42.708;23.288;2022-09-09T07:05:33;95222.00;;;36.89;nan
6423;BME280;3244;42.708;23.288;2022-09-09T07:08:00;95219.88;;;35.34;nan
6423;BME280;3244;42.708;23.288;2022-09-09T07:10:27;95218.03;;;34.45;nan
6423;BME280;3244;42.708;23.288;2022-09-09T07:12:54;95212.25;;;35.18;nan
6423;BME280;3244;42.708;23.288;2022-09-09T07:15:21;95210.94;;;35.48;nan
6423;BME280;3244;42.708;23.288;2022-09-09T07:17:48;95212.38;;;34.83;nan
6423;BME280;3244;42.708;23.288;2022-09-09T07:20:17;95208.06;;;32.56;nan
6423;BME280;3244;42.708;23.288;2022-09-09T07:22:45;95210.59;;;33.29;nan
6423;BME280;3244;42.708;23.288;2022-09-09T07:25:12;95202.38;;;33.60;nan
6423;BME280;3244;42.708;23.288;2022-09-09T07:27:39;95210.31;;;32.44;nan
6423;BME280;3244;42.708;23.288;2022-09-09T07:30:07;95196.84;;;31.57;nan
6423;BME280;3244;42.708;23.288;2022-09-09T07:32:34;95209.84;;;29.86;nan
6423;BME280;3244;42.708;23.288;2022-09-09T07:35:01;95198.69;;;30.95;nan
6423;BME280;3244;42.708;23.288;2022-09-09T07:37:29;95201.28;;;30.72;nan
6423;BME280;3244;42.708;23.288;2022-09-09T07:39:56;95203.72;;;31.13;nan
6423;BME280;3244;42.708;23.288;2022-09-09T07:42:23;95208.84;;;31.52;nan
6423;BME280;3244;42.708;23.288;2022-09-09T07:44:49;95213.78;;;31.77;nan
6423;BME280;3244;42.708;23.288;2022-09-09T07:47:20;95213.69;;;32.23;nan
6423;BME280;3244;42.708;23.288;2022-09-09T07:49:46;95208.66;;;33.59;nan
6423;BME280;3244;42.708;23.288;2022-09-09T07:52:15;95212.28;;;33.37;nan
6423;BME280;3244;42.708;23.288;2022-09-09T07:54:43;95208.06;;;33.42;nan
6423;BME280;3244;42.708;23.288;2022-09-09T07:57:10;95213.00;;;32.95;nan
6423;BME280;3244;42.708;23.288;2022-09-09T07:59:38;95209.81;;;32.99;nan
6423;BME280;3244;42.708;23.288;2022-09-09T08:02:04;95205.69;;;32.17;nan
6423;BME280;3244;42.708;23.288;2022-09-09T08:04:32;95201.28;;;31.79;nan
6423;BME280;3244;42.708;23.288;2022-09-09T08:07:00;95204.06;;;31.55;nan
6423;BME280;3244;42.708;23.288;2022-09-09T08:09:28;95211.72;;;30.88;nan
6423;BME280;3244;42.708;23.288;2022-09-09T08:11:59;95208.50;;;30.23;nan
6423;BME280;3244;42.708;23.288;2022-09-09T08:14:26;95204.28;;;29.81;nan
6423;BME280;3244;42.708;23.288;2022-09-09T08:16:53;95205.75;;;30.00;nan
6423;BME280;3244;42.708;23.288;2022-09-09T08:19:21;95200.00;;;30.13;nan
6423;BME280;3244;42.708;23.288;2022-09-09T08:21:48;95206.31;;;30.42;nan
6423;BME280;3244;42.708;23.288;2022-09-09T08:24:15;95202.50;;;30.61;nan
6423;BME280;3244;42.708;23.288;2022-09-09T08:26:45;95202.19;;;30.56;nan
6423;BME280;3244;42.708;23.288;2022-09-09T08:29:14;95199.47;;;30.25;nan
6423;BME280;3244;42.708;23.288;2022-09-09T08:31:42;95197.41;;;29.72;nan
6423;BME280;3244;42.708;23.288;2022-09-09T08:34:09;95192.50;;;29.36;nan
6423;BME280;3244;42.708;23.288;2022-09-09T08:36:38;95197.69;;;29.04;nan
6423;BME280;3244;42.708;23.288;2022-09-09T08:39:07;95204.59;;;28.71;nan
6423;BME280;3244;42.708;23.288;2022-09-09T08:41:41;95197.25;;;28.66;nan
6423;BME280;3244;42.708;23.288;2022-09-09T08:44:17;95194.28;;;28.27;nan
6423;BME280;3244;42.708;23.288;2022-09-09T08:46:50;95199.63;;;27.92;nan
6423;BME280;3244;42.708;23.288;2022-09-09T08:49:42;95194.56;;;27.90;nan
6423;BME280;3244;42.708;23.288;2022-09-09T08:52:19;95197.66;;;28.54;nan
6423;BME280;3244;42.708;23.288;2022-09-09T08:54:48;95196.69;;;28.55;nan
6423;BME280;3244;42.708;23.288;2022-09-09T08:57:20;95196.19;;;29.01;nan
6423;BME280;3244;42.708;23.288;2022-09-09T08:59:54;95187.41;;;29.10;nan
6423;BME280;3244;42.708;23.288;2022-09-09T09:02:26;95187.91;;;29.30;nan
6423;BME280;3244;42.708;23.288;2022-09-09T09:05:11;95189.97;;;28.86;nan
6423;BME280;3244;42.708;23.288;2022-09-09T09:07:50;95197.84;;;28.94;nan
6423;BME280;3244;42.708;23.288;2022-09-09T09:10:32;95191.00;;;29.18;nan
6423;BME280;3244;42.708;23.288;2022-09-09T09:13:02;95179.44;;;29.44;nan
6423;BME280;3244;42.708;23.288;2022-09-09T09:15:36;95188.06;;;29.77;nan
6423;BME280;3244;42.708;23.288;2022-09-09T09:18:04;95184.16;;;29.73;nan
6423;BME280;3244;42.708;23.288;2022-09-09T09:20:36;95172.56;;;29.43;nan
6423;BME280;3244;42.708;23.288;2022-09-09T09:23:13;95185.25;;;28.56;nan
6423;BME280;3244;42.708;23.288;2022-09-09T09:25:43;95178.44;;;27.95;nan
6423;BME280;3244;42.708;23.288;2022-09-09T09:28:13;95185.53;;;27.59;nan
6423;BME280;3244;42.708;23.288;2022-09-09T09:30:49;95186.25;;;27.51;nan
6423;BME280;3244;42.708;23.288;2022-09-09T09:33:20;95191.56;;;27.24;nan
6423;BME280;3244;42.708;23.288;2022-09-09T09:35:49;95186.81;;;26.74;nan
6423;BME280;3244;42.708;23.288;2022-09-09T09:38:20;95183.31;;;27.10;nan
6423;BME280;3244;42.708;23.288;2022-09-09T09:40:52;95176.00;;;27.14;nan
6423;BME280;3244;42.708;23.288;2022-09-09T09:43:25;95172.91;;;27.36;nan
6423;BME280;3244;42.708;23.288;2022-09-09T09:45:55;95176.28;;;27.64;nan
6423;BME280;3244;42.708;23.288;2022-09-09T09:48:23;95165.81;;;27.64;nan
6423;BME280;3244;42.708;23.288;2022-09-09T09:50:52;95163.81;;;27.58;nan
6423;BME280;3244;42.708;23.288;2022-09-09T09:53:22;95168.06;;;27.59;nan
6423;BME280;3244;42.708;23.288;2022-09-09T09:55:55;95166.03;;;27.53;nan
6423;BME280;3244;42.708;23.288;2022-09-09T09:58:23;95158.38;;;27.34;nan
6423;BME280;3244;42.708;23.288;2022-09-09T10:00:53;95154.28;;;27.31;nan
6423;BME280;3244;42.708;23.288;2022-09-09T10:03:24;95150.75;;;26.97;nan
6423;BME280;3244;42.708;23.288;2022-09-09T10:05:52;95156.28;;;26.84;nan
6423;BME280;3244;42.708;23.288;2022-09-09T10:08:19;95164.00;;;26.76;nan
6423;BME280;3244;42.708;23.288;2022-09-09T10:11:07;95167.75;;;26.91;nan
6423;BME280;3244;42.708;23.288;2022-09-09T10:13:48;95176.31;;;26.66;nan
6423;BME280;3244;42.708;23.288;2022-09-09T10:16:29;95172.63;;;26.59;nan
6423;BME280;3244;42.708;23.288;2022-09-09T10:19:04;95169.88;;;26.60;nan
6423;BME280;3244;42.708;23.288;2022-09-09T10:24:47;95173.19;;;26.35;nan
6423;BME280;3244;42.708;23.288;2022-09-09T10:27:24;95174.97;;;26.25;nan
6423;BME280;3244;42.708;23.288;2022-09-09T10:30:11;95173.59;;;26.30;nan
6423;BME280;3244;42.708;23.288;2022-09-09T10:32:46;95174.00;;;26.35;nan
6423;BME280;3244;42.708;23.288;2022-09-09T10:35:29;95173.84;;;26.37;nan
6423;BME280;3244;42.708;23.288;2022-09-09T10:38:13;95175.25;;;26.31;nan
6423;BME280;3244;42.708;23.288;2022-09-09T10:43:41;95173.03;;;26.36;nan
6423;BME280;3244;42.708;23.288;2022-09-09T10:46:15;95182.88;;;26.42;nan
6423;BME280;3244;42.708;23.288;2022-09-09T10:49:00;95177.66;;;26.42;nan
6423;BME280;3244;42.708;23.288;2022-09-09T10:51:35;95175.63;;;26.36;nan
6423;BME280;3244;42.708;23.288;2022-09-09T10:54:22;95188.53;;;26.28;nan
6423;BME280;3244;42.708;23.288;2022-09-09T10:56:55;95185.66;;;26.31;nan
6423;BME280;3244;42.708;23.288;2022-09-09T10:59:26;95175.91;;;26.33;nan
6423;BME280;3244;42.708;23.288;2022-09-09T11:01:59;95175.63;;;26.36;nan
6423;BME280;3244;42.708;23.288;2022-09-09T11:04:34;95177.66;;;26.42;nan
6423;BME280;3244;42.708;23.288;2022-09-09T11:07:08;95169.81;;;26.15;nan
6423;BME280;3244;42.708;23.288;2022-09-09T11:09:38;95173.13;;;26.07;nan
6423;BME280;3244;42.708;23.288;2022-09-09T11:12:13;95173.38;;;26.14;nan
6423;BME280;3244;42.708;23.288;2022-09-09T11:14:44;95169.38;;;26.20;nan
6423;BME280;3244;42.708;23.288;2022-09-09T11:17:14;95171.38;;;26.26;nan
6423;BME280;3244;42.708;23.288;2022-09-09T11:19:44;95157.97;;;26.30;nan
6423;BME280;3244;42.708;23.288;2022-09-09T11:22:18;95160.44;;;26.32;nan
6423;BME280;3244;42.708;23.288;2022-09-09T11:24:49;95162.22;;;26.31;nan
6423;BME280;3244;42.708;23.288;2022-09-09T11:27:21;95153.78;;;26.47;nan
6423;BME280;3244;42.708;23.288;2022-09-09T11:30:04;95148.88;;;26.44;nan
6423;BME280;3244;42.708;23.288;2022-09-09T11:32:59;95145.03;;;26.38;nan
6423;BME280;3244;42.708;23.288;2022-09-09T11:35:42;95129.13;;;26.41;nan
6423;BME280;3244;42.708;23.288;2022-09-09T11:38:26;95121.09;;;26.53;nan
6423;BME280;3244;42.708;23.288;2022-09-09T11:40:58;95115.00;;;26.62;nan
6423;BME280;3244;42.708;23.288;2022-09-09T11:43:28;95108.81;;;26.63;nan
6423;BME280;3244;42.708;23.288;2022-09-09T11:45:58;95100.63;;;26.75;nan
6423;BME280;3244;42.708;23.288;2022-09-09T11:48:29;95089.88;;;26.78;nan
6423;BME280;3244;42.708;23.288;2022-09-09T11:51:01;95084.75;;;26.87;nan
6423;BME280;3244;42.708;23.288;2022-09-09T11:53:31;95089.94;;;26.96;nan
6423;BME280;3244;42.708;23.288;2022-09-09T11:56:25;95089.69;;;27.07;nan
6423;BME280;3244;42.708;23.288;2022-09-09T11:58:58;95094.53;;;27.20;nan
6423;BME280;3244;42.708;23.288;2022-09-09T12:01:33;95093.72;;;27.46;nan
6423;BME280;3244;42.708;23.288;2022-09-09T12:04:18;95090.13;;;27.72;nan
6423;BME280;3244;42.708;23.288;2022-09-09T12:06:52;95092.50;;;27.84;nan
6423;BME280;3244;42.708;23.288;2022-09-09T12:09:24;95079.53;;;28.08;nan
6423;BME280;3244;42.708;23.288;2022-09-09T12:11:52;95078.38;;;27.68;nan
6423;BME280;3244;42.708;23.288;2022-09-09T12:14:21;95074.81;;;27.69;nan
6423;BME280;3244;42.708;23.288;2022-09-09T12:16:48;95070.97;;;27.90;nan
6423;BME280;3244;42.708;23.288;2022-09-09T12:19:19;95066.31;;;27.75;nan
6423;BME280;3244;42.708;23.288;2022-09-09T12:21:54;95063.03;;;27.65;nan
6423;BME280;3244;42.708;23.288;2022-09-09T12:24:32;95060.56;;;27.64;nan
6423;BME280;3244;42.708;23.288;2022-09-09T12:27:07;95061.25;;;28.08;nan
6423;BME280;3244;42.708;23.288;2022-09-09T12:29:44;95043.72;;;28.51;nan
6423;BME280;3244;42.708;23.288;2022-09-09T12:32:20;95049.31;;;28.64;nan
6423;BME280;3244;42.708;23.288;2022-09-09T12:34:51;95040.13;;;28.52;nan
6423;BME280;3244;42.708;23.288;2022-09-09T12:37:27;95044.59;;;28.09;nan
6423;BME280;3244;42.708;23.288;2022-09-09T12:39:56;95043.53;;;27.86;nan
6423;BME280;3244;42.708;23.288;2022-09-09T12:42:25;95048.03;;;27.50;nan
6423;BME280;3244;42.708;23.288;2022-09-09T12:44:53;95043.72;;;27.32;nan
6423;BME280;3244;42.708;23.288;2022-09-09T12:47:24;95048.88;;;27.50;nan
6423;BME280;3244;42.708;23.288;2022-09-09T12:49:52;95040.19;;;27.41;nan
6423;BME280;3244;42.708;23.288;2022-09-09T12:52:26;95023.50;;;27.34;nan
6423;BME280;3244;42.708;23.288;2022-09-09T12:54:55;95032.81;;;27.37;nan
6423;BME280;3244;42.708;23.288;2022-09-09T12:57:24;95030.06;;;27.64;nan
6423;BME280;3244;42.708;23.288;2022-09-09T12:59:52;95044.09;;;27.63;nan
6423;BME280;3244;42.708;23.288;2022-09-09T13:02:21;95031.78;;;27.56;nan
6423;BME280;3244;42.708;23.288;2022-09-09T13:04:49;95034.97;;;27.41;nan
6423;BME280;3244;42.708;23.288;2022-09-09T13:07:17;95034.56;;;27.28;nan
6423;BME280;3244;42.708;23.288;2022-09-09T13:09:46;95032.41;;;27.24;nan
6423;BME280;3244;42.708;23.288;2022-09-09T13:12:17;95031.28;;;27.26;nan
6423;BME280;3244;42.708;23.288;2022-09-09T13:14:46;95020.44;;;27.39;nan
6423;BME280;3244;42.708;23.288;2022-09-09T13:17:22;95014.47;;;27.55;nan
6423;BME280;3244;42.708;23.288;2022-09-09T13:19:50;95016.25;;;27.46;nan
6423;BME280;3244;42.708;23.288;2022-09-09T13:22:21;94997.72;;;27.31;nan
6423;BME280;3244;42.708;23.288;2022-09-09T13:25:00;95003.22;;;27.28;nan
6423;BME280;3244;42.708;23.288;2022-09-09T13:27:30;95004.56;;;27.32;nan
6423;BME280;3244;42.708;23.288;2022-09-09T13:29:57;94990.34;;;27.27;nan
6423;BME280;3244;42.708;23.288;2022-09-09T13:32:25;94992.28;;;27.25;nan
6423;BME280;3244;42.708;23.288;2022-09-09T13:34:54;94998.25;;;27.09;nan
6423;BME280;3244;42.708;23.288;2022-09-09T13:37:24;94994.50;;;27.12;nan
6423;BME280;3244;42.708;23.288;2022-09-09T13:39:54;94996.81;;;27.15;nan
6423;BME280;3244;42.708;23.288;2022-09-09T13:42:25;94985.19;;;27.09;nan
6423;BME280;3244;42.708;23.288;2022-09-09T13:44:53;94978.19;;;27.09;nan
6423;BME280;3244;42.708;23.288;2022-09-09T13:47:28;94978.19;;;27.09;nan
6423;BME280;3244;42.708;23.288;2022-09-09T13:49:55;94975.44;;;27.11;nan
6423;BME280;3244;42.708;23.288;2022-09-09T13:52:23;94974.81;;;27.17;nan
6423;BME280;3244;42.708;23.288;2022-09-09T13:54:52;94970.94;;;27.29;nan
6423;BME280;3244;42.708;23.288;2022-09-09T13:57:21;94973.47;;;27.39;nan
6423;BME280;3244;42.708;23.288;2022-09-09T13:59:50;94978.06;;;27.45;nan
6423;BME280;3244;42.708;23.288;2022-09-09T14:02:17;94976.22;;;27.63;nan